Time;durP1;ratioP1;P1;durP2;ratioP2;P2;SDS_P1;SDS_P2;PMS_P1;PMS_P2;Temp;Humidity;BMP_temperature;BMP_pressure;BME280_temperature;BME280_humidity;BME280_pressure;Samples;Min_cycle;Max_cycle;Signal;HPM_P1;HPM_P2
2023/10/13 00:01:11;;;;;;;13.55;13.05;;;18.60;99.90;;;;;;5050946;28;20211;-68
2023/10/13 00:03:40;;;;;;;14.93;14.32;;;18.60;99.90;;;;;;5055296;28;20224;-66
2023/10/13 00:06:08;;;;;;;13.57;13.07;;;18.60;99.90;;;;;;5050482;28;20893;-67
2023/10/13 00:08:36;;;;;;;14.15;13.63;;;18.60;99.90;;;;;;5050677;28;20204;-68
2023/10/13 00:11:04;;;;;;;14.30;13.80;;;18.60;99.90;;;;;;5061831;28;20686;-67
2023/10/13 00:13:40;;;;;;;13.85;13.35;;;18.70;99.90;;;;;;5070813;28;20330;-67
2023/10/13 00:16:09;;;;;;;14.05;13.45;;;18.60;99.90;;;;;;5070476;28;20221;-69
2023/10/13 00:18:41;;;;;;;14.38;13.77;;;18.60;99.90;;;;;;5070081;28;20562;-66
2023/10/13 00:21:13;;;;;;;13.23;12.73;;;18.70;99.90;;;;;;5061741;28;20219;-68
2023/10/13 00:23:43;;;;;;;14.00;13.50;;;18.70;99.90;;;;;;5055715;28;20232;-68
2023/10/13 00:26:10;;;;;;;13.60;13.10;;;18.70;99.90;;;;;;5071559;28;20223;-68
2023/10/13 00:28:45;;;;;;;13.87;13.37;;;18.70;99.90;;;;;;5069985;28;20665;-66
2023/10/13 00:31:13;;;;;;;13.63;13.13;;;18.60;99.90;;;;;;5067626;28;20214;-68
2023/10/13 00:33:42;;;;;;;13.48;12.88;;;18.60;99.90;;;;;;5069839;28;20628;-69
2023/10/13 00:36:17;;;;;;;13.85;13.35;;;18.70;99.90;;;;;;5073047;28;20223;-67
2023/10/13 00:38:48;;;;;;;13.43;12.93;;;18.70;99.90;;;;;;5073668;28;20763;-67
2023/10/13 00:41:16;;;;;;;13.57;13.07;;;18.70;99.90;;;;;;5074128;28;20219;-67
2023/10/13 00:44:03;;;;;;;13.98;13.48;;;18.60;99.90;;;;;;5068417;28;20235;-67
2023/10/13 00:46:33;;;;;;;13.65;13.15;;;18.60;99.90;;;;;;5073766;28;20223;-66
2023/10/13 00:49:01;;;;;;;13.43;12.93;;;18.70;99.90;;;;;;5067808;28;20208;-67
2023/10/13 00:51:34;;;;;;;13.43;12.93;;;18.70;99.90;;;;;;5073687;28;20602;-69
2023/10/13 00:54:07;;;;;;;13.65;13.15;;;18.80;99.90;;;;;;5070814;28;20372;-67
2023/10/13 00:56:34;;;;;;;13.65;13.15;;;18.80;99.90;;;;;;5073608;28;20282;-68
2023/10/13 00:59:02;;;;;;;13.73;13.23;;;18.70;99.90;;;;;;5073042;28;20207;-68
2023/10/13 01:01:29;;;;;;;13.73;13.23;;;18.80;99.90;;;;;;5073421;28;20273;-68
2023/10/13 01:03:59;;;;;;;14.18;13.57;;;18.80;99.90;;;;;;5073108;28;20309;-66
2023/10/13 01:06:28;;;;;;;14.15;13.65;;;18.80;99.90;;;;;;5073662;28;20238;-68
2023/10/13 01:09:10;;;;;;;14.57;13.98;;;18.80;99.90;;;;;;5073469;28;20509;-67
2023/10/13 01:11:37;;;;;;;13.57;13.07;;;18.80;99.90;;;;;;5061110;28;20295;-67
2023/10/13 01:14:04;;;;;;;13.98;13.48;;;18.80;99.90;;;;;;5053171;28;20293;-68
2023/10/13 01:16:30;;;;;;;14.05;13.55;;;18.80;99.90;;;;;;5052916;28;20208;-66
2023/10/13 01:18:59;;;;;;;14.40;13.90;;;18.80;99.90;;;;;;5052821;28;20257;-68
2023/10/13 01:21:27;;;;;;;13.73;13.23;;;18.80;99.90;;;;;;5053012;28;20302;-68
2023/10/13 01:23:55;;;;;;;14.15;13.65;;;18.80;99.90;;;;;;5052582;28;20303;-68
2023/10/13 01:26:23;;;;;;;14.32;13.68;;;18.80;99.90;;;;;;5053271;28;20235;-68
2023/10/13 01:28:50;;;;;;;14.30;13.80;;;18.70;99.90;;;;;;5052908;28;20204;-68
2023/10/13 01:31:25;;;;;;;14.00;13.50;;;18.60;99.90;;;;;;5052978;28;20211;-67
2023/10/13 01:33:54;;;;;;;13.80;13.30;;;18.60;99.90;;;;;;5053445;28;20326;-66
2023/10/13 01:36:21;;;;;;;14.33;13.73;;;18.50;99.90;;;;;;5074494;28;20678;-68
2023/10/13 01:38:48;;;;;;;14.65;14.07;;;18.50;99.90;;;;;;5075347;28;20284;-68
2023/10/13 01:41:15;;;;;;;14.45;13.85;;;18.50;99.90;;;;;;5082679;28;20617;-69
2023/10/13 01:43:42;;;;;;;13.98;13.48;;;18.40;99.90;;;;;;5078562;28;20765;-68
2023/10/13 01:46:09;;;;;;;14.40;13.90;;;18.30;99.90;;;;;;5074813;28;20206;-68
2023/10/13 01:48:38;;;;;;;16.30;15.70;;;18.20;99.90;;;;;;5075157;28;20214;-68
2023/10/13 01:51:08;;;;;;;14.20;13.70;;;18.10;99.90;;;;;;5072418;28;20397;-68
2023/10/13 01:53:36;;;;;;;17.13;16.52;;;18.00;99.90;;;;;;5073107;28;20219;-68
2023/10/13 01:56:06;;;;;;;15.25;14.73;;;18.00;99.90;;;;;;5072639;28;20225;-69
2023/10/13 01:58:34;;;;;;;14.93;14.43;;;18.00;99.90;;;;;;5066415;28;20234;-67
2023/10/13 02:01:00;;;;;;;15.65;15.05;;;17.90;99.90;;;;;;5063134;28;20224;-67
2023/10/13 02:03:29;;;;;;;15.20;14.60;;;17.80;99.90;;;;;;5072053;28;20249;-67
2023/10/13 02:05:57;;;;;;;14.63;14.13;;;17.80;99.90;;;;;;5072531;28;20246;-67
2023/10/13 02:08:24;;;;;;;15.53;14.93;;;17.70;99.90;;;;;;5059070;28;20212;-67
2023/10/13 02:10:50;;;;;;;15.20;14.65;;;17.70;99.90;;;;;;5052639;28;20216;-67
2023/10/13 02:13:19;;;;;;;15.75;15.15;;;17.60;99.90;;;;;;5072348;28;20227;-69
2023/10/13 02:15:48;;;;;;;16.05;15.32;;;17.60;99.90;;;;;;5066526;28;20626;-68
2023/10/13 02:18:20;;;;;;;15.18;14.68;;;17.60;99.90;;;;;;5072086;28;20207;-68
2023/10/13 02:20:54;;;;;;;16.13;15.52;;;17.50;99.90;;;;;;5069874;28;20214;-68
2023/10/13 02:23:21;;;;;;;16.70;16.00;;;17.40;99.90;;;;;;5070079;28;20227;-66
2023/10/13 02:25:46;;;;;;;17.33;16.70;;;17.30;99.90;;;;;;5069943;28;20211;-67
2023/10/13 02:28:14;;;;;;;15.27;14.68;;;17.30;99.90;;;;;;5056613;28;20230;-68
2023/10/13 02:30:44;;;;;;;14.48;13.98;;;17.30;99.90;;;;;;5078093;28;20234;-68
2023/10/13 02:33:20;;;;;;;14.52;14.02;;;17.30;99.90;;;;;;5079616;28;20231;-67
2023/10/13 02:35:53;;;;;;;14.90;14.20;;;17.20;99.90;;;;;;5086699;28;20218;-68
2023/10/13 02:38:27;;;;;;;15.20;14.60;;;17.10;99.90;;;;;;5085893;28;20196;-66
2023/10/13 02:40:54;;;;;;;14.57;14.07;;;17.20;99.90;;;;;;5088238;28;20202;-67
2023/10/13 02:43:22;;;;;;;15.57;14.98;;;17.10;99.90;;;;;;5079477;28;20296;-67
2023/10/13 02:45:57;;;;;;;14.95;14.45;;;17.10;99.90;;;;;;5068899;28;20200;-67
2023/10/13 02:48:30;;;;;;;15.30;14.80;;;17.10;99.90;;;;;;5071106;28;20215;-67
2023/10/13 02:51:01;;;;;;;17.00;16.30;;;17.10;99.90;;;;;;5073721;28;20215;-68
2023/10/13 02:53:29;;;;;;;14.90;14.30;;;17.00;99.90;;;;;;5069303;28;20263;-68
2023/10/13 02:55:58;;;;;;;15.63;15.05;;;17.00;99.90;;;;;;5071910;28;20223;-67
2023/10/13 02:58:37;;;;;;;15.10;14.60;;;17.00;99.90;;;;;;5073258;28;20203;-67
2023/10/13 03:01:16;;;;;;;16.15;15.55;;;17.00;99.90;;;;;;5076713;28;20203;-68
2023/10/13 03:03:47;;;;;;;17.83;17.13;;;16.90;99.90;;;;;;5073695;28;20711;-66
2023/10/13 03:06:14;;;;;;;15.70;15.10;;;16.90;99.90;;;;;;5065485;28;20211;-68
2023/10/13 03:08:42;;;;;;;16.10;15.50;;;16.80;99.90;;;;;;5071155;28;20207;-67
2023/10/13 03:11:09;;;;;;;15.95;15.35;;;16.70;99.90;;;;;;5055642;28;20223;-68
2023/10/13 03:13:36;;;;;;;15.35;14.75;;;16.70;99.90;;;;;;5059423;28;20227;-67
2023/10/13 03:16:11;;;;;;;16.52;15.82;;;16.60;99.90;;;;;;5052764;28;20239;-68
2023/10/13 03:18:38;;;;;;;15.82;15.23;;;16.60;99.90;;;;;;5051234;28;20285;-67
2023/10/13 03:21:07;;;;;;;14.45;13.88;;;16.70;99.90;;;;;;5050985;28;20253;-67
2023/10/13 03:23:45;;;;;;;14.95;14.45;;;16.60;99.90;;;;;;5051293;28;20325;-68
2023/10/13 03:26:11;;;;;;;15.10;14.60;;;16.70;99.90;;;;;;5062508;28;20240;-67
2023/10/13 03:28:38;;;;;;;15.80;15.25;;;16.70;99.90;;;;;;5071077;28;20662;-68
2023/10/13 03:31:07;;;;;;;14.95;14.45;;;16.70;99.90;;;;;;5065645;28;20222;-68
2023/10/13 03:33:34;;;;;;;14.85;14.25;;;16.70;99.90;;;;;;5070762;28;20322;-68
2023/10/13 03:36:05;;;;;;;14.70;14.20;;;16.70;99.90;;;;;;5070844;28;20215;-67
2023/10/13 03:38:36;;;;;;;14.40;13.90;;;16.70;99.90;;;;;;5070541;28;20226;-67
2023/10/13 03:41:12;;;;;;;13.85;13.35;;;16.70;99.90;;;;;;5070650;28;20294;-67
2023/10/13 03:43:45;;;;;;;14.60;14.00;;;16.80;99.90;;;;;;5070653;28;20227;-67
2023/10/13 03:46:12;;;;;;;14.30;13.70;;;16.80;99.90;;;;;;5059280;28;20211;-67
2023/10/13 03:48:51;;;;;;;14.20;13.70;;;16.80;99.90;;;;;;5050155;28;20238;-67
2023/10/13 03:51:18;;;;;;;13.55;13.05;;;16.80;99.90;;;;;;5050109;28;20223;-67
2023/10/13 03:53:53;;;;;;;15.13;14.57;;;16.80;99.90;;;;;;5050283;28;20223;-67
2023/10/13 03:56:26;;;;;;;16.23;15.63;;;16.80;99.90;;;;;;5050353;28;20682;-68
2023/10/13 03:58:54;;;;;;;15.18;14.63;;;16.70;99.90;;;;;;5050126;28;20208;-67
2023/10/13 04:01:31;;;;;;;14.88;14.27;;;16.70;99.90;;;;;;5050310;28;20238;-67
2023/10/13 04:04:03;;;;;;;14.27;13.77;;;16.70;99.90;;;;;;5050845;28;20235;-67
2023/10/13 04:06:50;;;;;;;16.20;15.52;;;16.60;99.90;;;;;;5050913;28;20204;-67
2023/10/13 04:15:18;;;;;;;15.98;15.38;;;16.60;99.90;;;;;;5074382;28;20233;-68
2023/10/13 04:17:45;;;;;;;15.40;14.90;;;16.50;99.90;;;;;;5078157;28;20344;-67
2023/10/13 04:20:28;;;;;;;14.85;14.30;;;16.50;99.90;;;;;;5072347;28;20625;-67
2023/10/13 04:23:19;;;;;;;15.98;15.38;;;16.50;99.90;;;;;;5071467;28;20229;-66
2023/10/13 04:28:50;;;;;;;14.98;14.48;;;16.40;99.90;;;;;;5070325;28;20316;-68
2023/10/13 04:31:46;;;;;;;14.77;14.27;;;16.40;99.90;;;;;;5074418;28;20280;-68
2023/10/13 04:34:19;;;;;;;15.30;14.70;;;16.50;99.90;;;;;;5073790;28;20625;-69
2023/10/13 04:36:46;;;;;;;15.05;14.45;;;16.50;99.90;;;;;;5074102;28;20211;-67
2023/10/13 04:39:29;;;;;;;15.57;14.98;;;16.50;99.90;;;;;;5071997;28;20674;-66
2023/10/13 04:42:10;;;;;;;15.35;14.65;;;16.50;99.90;;;;;;5074641;28;20238;-68
2023/10/13 04:44:52;;;;;;;15.23;14.52;;;16.40;99.90;;;;;;5073927;28;20624;-67
2023/10/13 04:47:21;;;;;;;14.73;14.02;;;16.40;99.90;;;;;;5073602;28;20673;-67
2023/10/13 04:49:54;;;;;;;14.50;14.00;;;16.40;99.90;;;;;;5074420;28;20207;-68
2023/10/13 04:55:32;;;;;;;14.88;14.27;;;16.30;99.90;;;;;;5053816;28;20227;-64
2023/10/13 04:58:10;;;;;;;14.65;14.05;;;16.30;99.90;;;;;;5053726;28;20693;-64
2023/10/13 05:03:52;;;;;;;13.95;13.45;;;16.30;99.90;;;;;;5083812;28;20233;-64
2023/10/13 05:45:22;;;;;;;14.43;13.90;;;16.20;99.90;;;;;;5048126;28;20313;-65
2023/10/13 05:47:47;;;;;;;14.48;13.98;;;16.20;99.90;;;;;;5073022;28;20243;-66
2023/10/13 05:50:29;;;;;;;13.90;13.40;;;16.20;99.90;;;;;;5073244;28;20207;-65
2023/10/13 06:28:49;;;;;;;14.77;14.17;;;16.40;99.90;;;;;;5059583;28;20268;-66
2023/10/13 06:31:22;;;;;;;14.10;13.60;;;16.40;99.90;;;;;;5069901;28;20214;-67
2023/10/13 06:33:49;;;;;;;15.23;14.52;;;16.50;99.90;;;;;;5072196;28;20242;-68
2023/10/13 06:36:17;;;;;;;15.73;15.02;;;16.50;99.90;;;;;;5073970;28;20219;-67
2023/10/13 06:38:44;;;;;;;15.20;14.60;;;16.60;99.90;;;;;;5077545;28;20321;-67
2023/10/13 06:41:19;;;;;;;15.02;14.52;;;16.70;99.90;;;;;;5079336;28;20215;-68
2023/10/13 06:43:58;;;;;;;14.15;13.65;;;16.80;99.90;;;;;;5076063;28;20234;-67
2023/10/13 06:46:28;;;;;;;13.68;13.18;;;16.90;99.90;;;;;;5068271;28;20202;-68
2023/10/13 06:48:55;;;;;;;13.80;13.30;;;17.00;99.90;;;;;;5071831;28;20294;-67
2023/10/13 06:51:26;;;;;;;12.48;12.07;;;17.20;99.90;;;;;;5071869;28;20211;-68
2023/10/13 06:53:56;;;;;;;13.25;12.75;;;17.30;99.90;;;;;;5072080;28;20220;-67
2023/10/13 06:56:26;;;;;;;13.48;12.98;;;17.40;99.90;;;;;;5071633;28;20207;-67
2023/10/13 06:58:59;;;;;;;13.63;13.13;;;17.50;99.90;;;;;;5071488;28;20207;-67
2023/10/13 07:01:26;;;;;;;13.50;13.00;;;17.60;99.90;;;;;;5071719;28;20211;-66
2023/10/13 07:03:53;;;;;;;13.30;12.80;;;17.70;99.90;;;;;;5071917;28;20223;-68
2023/10/13 07:06:20;;;;;;;14.05;13.55;;;17.90;99.90;;;;;;5071581;28;20256;-67
2023/10/13 07:08:52;;;;;;;13.90;13.40;;;18.00;99.90;;;;;;5068610;28;20254;-67
2023/10/13 07:11:32;;;;;;;14.23;13.52;;;18.10;99.90;;;;;;5069672;28;20231;-68
2023/10/13 07:14:00;;;;;;;13.40;12.90;;;18.20;99.90;;;;;;5071571;28;20239;-67
2023/10/13 07:16:35;;;;;;;13.70;13.20;;;18.40;99.90;;;;;;5071545;28;20692;-67
2023/10/13 07:19:05;;;;;;;13.90;13.40;;;18.50;99.90;;;;;;5071223;28;20572;-66
2023/10/13 07:21:32;;;;;;;14.00;13.50;;;18.60;99.90;;;;;;5071183;28;20207;-68
2023/10/13 07:24:08;;;;;;;14.00;13.50;;;18.70;99.90;;;;;;5071576;28;20227;-68
2023/10/13 07:26:42;;;;;;;14.50;14.00;;;18.80;99.90;;;;;;5065986;28;20628;-68
2023/10/13 07:29:09;;;;;;;13.60;13.10;;;18.90;99.90;;;;;;5062665;28;20227;-67
2023/10/13 07:31:37;;;;;;;14.10;13.50;;;19.10;99.90;;;;;;5072063;28;20215;-68
2023/10/13 07:34:12;;;;;;;14.20;13.70;;;19.30;99.90;;;;;;5073785;28;20255;-68
2023/10/13 07:36:40;;;;;;;14.73;14.13;;;19.40;99.90;;;;;;5077182;28;20271;-68
2023/10/13 07:39:20;;;;;;;14.82;14.30;;;19.50;99.90;;;;;;5072396;28;20199;-69
2023/10/13 07:41:51;;;;;;;14.60;14.10;;;19.60;99.90;;;;;;5068355;28;20207;-67
2023/10/13 07:44:20;;;;;;;14.75;14.23;;;19.70;99.90;;;;;;5067652;28;20296;-67
2023/10/13 07:46:49;;;;;;;14.82;14.32;;;19.80;99.90;;;;;;5063883;28;20204;-67
2023/10/13 07:49:16;;;;;;;14.60;14.10;;;19.90;99.90;;;;;;5069703;28;20223;-67
2023/10/13 07:51:45;;;;;;;15.10;14.50;;;20.00;99.90;;;;;;5069613;28;20210;-66
2023/10/13 07:54:21;;;;;;;14.55;14.05;;;20.20;99.90;;;;;;5071558;28;20638;-67
2023/10/13 07:56:48;;;;;;;13.90;13.40;;;20.40;99.90;;;;;;5069252;28;20208;-68
2023/10/13 07:59:15;;;;;;;13.80;13.30;;;20.60;99.90;;;;;;5079881;28;20200;-68
2023/10/13 08:01:43;;;;;;;13.90;13.40;;;20.80;99.90;;;;;;5071940;28;20693;-68
2023/10/13 08:04:12;;;;;;;15.73;15.13;;;21.00;99.90;;;;;;5068448;28;20710;-68
2023/10/13 08:06:40;;;;;;;15.80;15.20;;;21.10;99.90;;;;;;5051455;28;20212;-67
2023/10/13 08:09:28;;;;;;;13.95;13.43;;;21.30;99.90;;;;;;5069628;28;20851;-67
2023/10/13 08:11:56;;;;;;;14.85;14.35;;;21.50;99.90;;;;;;5071772;28;20674;-66
2023/10/13 08:14:23;;;;;;;14.30;13.80;;;21.60;99.90;;;;;;5067939;28;20219;-67
2023/10/13 08:16:54;;;;;;;14.63;14.02;;;21.80;99.90;;;;;;5069953;28;20673;-68
2023/10/13 08:19:26;;;;;;;14.48;13.98;;;22.00;99.90;;;;;;5067591;28;20626;-68
2023/10/13 08:21:57;;;;;;;14.50;14.00;;;22.20;99.90;;;;;;5067809;28;20269;-68
2023/10/13 08:24:28;;;;;;;14.35;13.85;;;22.50;99.90;;;;;;5071332;28;20331;-66
2023/10/13 08:32:54;;;;;;;16.63;16.02;;;23.20;99.90;;;;;;5023662;28;20569;-67
2023/10/13 08:35:33;;;;;;;16.10;15.50;;;23.30;99.90;;;;;;5069570;28;20216;-67
2023/10/13 08:38:04;;;;;;;16.35;15.75;;;23.50;99.90;;;;;;5071267;28;20706;-67
2023/10/13 08:43:18;;;;;;;16.83;16.23;;;24.00;99.90;;;;;;5060613;28;20252;-67
2023/10/13 08:45:53;;;;;;;20.42;19.05;;;24.20;99.90;;;;;;5073817;28;20207;-67
2023/10/13 08:48:26;;;;;;;16.77;16.10;;;24.30;99.90;;;;;;5068916;28;20231;-66
2023/10/13 08:50:55;;;;;;;17.38;16.67;;;24.60;99.90;;;;;;5077768;28;20213;-68
2023/10/13 08:53:31;;;;;;;16.45;15.85;;;24.70;99.90;;;;;;5071083;28;20224;-68
2023/10/13 08:56:04;;;;;;;15.63;15.07;;;24.90;99.90;;;;;;5063746;28;20206;-66
2023/10/13 09:04:20;;;;;;;14.18;13.57;;;25.50;99.90;;;;;;5071516;28;20287;-67
2023/10/13 09:07:00;;;;;;;15.93;15.32;;;25.70;99.90;;;;;;5064700;28;20708;-67
2023/10/13 09:09:44;;;;;;;15.15;14.55;;;25.90;99.90;;;;;;5073260;28;20309;-67
2023/10/13 09:12:11;;;;;;;14.95;14.25;;;26.00;99.90;;;;;;5075518;28;20199;-68
2023/10/13 09:14:44;;;;;;;15.68;15.07;;;26.10;99.90;;;;;;5074786;28;20219;-67
2023/10/13 09:17:12;;;;;;;15.55;14.95;;;26.00;99.90;;;;;;5068223;28;20693;-67
2023/10/13 09:19:56;;;;;;;16.65;16.05;;;26.00;99.90;;;;;;5073821;28;20195;-67
2023/10/13 09:22:26;;;;;;;17.90;17.20;;;26.00;99.90;;;;;;5072459;28;20214;-67
2023/10/13 09:24:58;;;;;;;17.65;16.95;;;25.80;99.90;;;;;;5077517;28;20234;-68
2023/10/13 09:27:26;;;;;;;17.83;17.13;;;25.50;99.90;;;;;;5076812;28;20225;-67
2023/10/13 09:30:09;;;;;;;18.88;18.13;;;25.30;99.90;;;;;;5068050;28;20560;-66
2023/10/13 09:32:45;;;;;;;17.35;16.75;;;25.30;99.90;;;;;;5069364;28;20221;-66
2023/10/13 09:35:16;;;;;;;18.25;17.55;;;25.50;99.90;;;;;;5065675;28;20229;-67
2023/10/13 09:37:46;;;;;;;19.60;18.88;;;25.50;99.90;;;;;;5067318;28;20689;-67
2023/10/13 09:40:25;;;;;;;20.85;20.10;;;25.60;99.90;;;;;;5064355;28;20211;-66
2023/10/13 09:42:52;;;;;;;21.42;20.63;;;25.60;99.90;;;;;;5066316;28;20295;-69
2023/10/13 09:45:27;;;;;;;21.27;20.48;;;25.80;99.90;;;;;;5065017;28;20214;-66
2023/10/13 09:47:57;;;;;;;19.35;18.65;;;25.80;99.90;;;;;;5057419;28;20208;-67
2023/10/13 09:50:26;;;;;;;20.73;19.92;;;26.10;99.90;;;;;;5057308;28;20213;-67
2023/10/13 09:52:56;;;;;;;18.27;17.63;;;26.10;99.90;;;;;;5062431;28;20275;-67
2023/10/13 09:55:28;;;;;;;18.33;17.63;;;26.30;99.90;;;;;;5063205;28;20304;-68
2023/10/13 09:58:09;;;;;;;19.25;18.55;;;26.40;99.90;;;;;;5065748;28;20632;-67
2023/10/13 10:00:48;;;;;;;18.52;17.83;;;26.50;99.90;;;;;;5063703;28;20210;-66
2023/10/13 10:03:39;;;;;;;17.63;16.92;;;26.60;99.90;;;;;;5073030;28;20613;-67
2023/10/13 10:06:06;;;;;;;21.05;20.33;;;26.70;99.90;;;;;;5073167;28;20291;-68
2023/10/13 10:08:34;;;;;;;19.90;19.13;;;26.80;99.90;;;;;;5072589;28;20784;-67
2023/10/13 10:11:40;;;;;;;21.10;20.25;;;26.90;99.90;;;;;;5067149;28;20211;-68
2023/10/13 10:14:14;;;;;;;18.30;17.67;;;27.00;99.90;;;;;;5062353;28;20245;-67
2023/10/13 10:16:53;;;;;;;19.90;19.17;;;27.10;99.90;;;;;;5065967;28;20242;-67
2023/10/13 10:19:20;;;;;;;19.02;18.33;;;27.10;99.90;;;;;;5059268;28;20231;-68
2023/10/13 10:21:48;;;;;;;21.52;20.63;;;26.90;99.90;;;;;;5068098;28;20243;-66
2023/10/13 10:24:23;;;;;;;20.83;20.05;;;26.70;99.90;;;;;;5072341;28;20781;-68
2023/10/13 10:26:54;;;;;;;23.02;22.08;;;26.80;99.90;;;;;;5072936;28;20298;-68
2023/10/13 10:29:20;;;;;;;20.95;20.23;;;26.80;99.90;;;;;;5065257;28;20227;-68
2023/10/13 10:31:48;;;;;;;21.15;20.38;;;26.90;99.90;;;;;;5072697;28;20553;-68
2023/10/13 10:34:18;;;;;;;20.70;19.90;;;26.90;99.90;;;;;;5066410;28;20231;-67
2023/10/13 10:36:48;;;;;;;21.70;20.90;;;26.90;99.90;;;;;;5068635;28;20234;-67
2023/10/13 10:39:15;;;;;;;20.77;20.00;;;27.00;99.90;;;;;;5066922;28;20287;-68
2023/10/13 10:41:51;;;;;;;21.08;20.33;;;27.10;99.90;;;;;;5059962;28;20216;-67
2023/10/13 10:44:22;;;;;;;17.98;17.27;;;27.30;99.90;;;;;;5068730;28;20270;-70
2023/10/13 10:46:57;;;;;;;19.75;19.00;;;27.40;99.90;;;;;;5074573;28;20211;-65
2023/10/13 10:49:28;;;;;;;19.73;18.98;;;27.50;99.90;;;;;;5069356;28;20241;-67
2023/10/13 10:52:01;;;;;;;20.00;19.20;;;27.60;99.90;;;;;;5081107;28;20203;-68
2023/10/13 10:54:31;;;;;;;20.15;19.42;;;27.70;99.90;;;;;;5081498;28;20277;-67
2023/10/13 10:57:10;;;;;;;19.45;18.75;;;27.70;99.90;;;;;;5088157;28;20447;-67
2023/10/13 10:59:38;;;;;;;19.83;19.08;;;27.80;99.90;;;;;;5072952;28;20207;-67
2023/10/13 11:02:08;;;;;;;20.45;19.65;;;27.90;99.90;;;;;;5072157;28;20207;-66
2023/10/13 11:04:40;;;;;;;18.17;17.50;;;28.10;99.90;;;;;;5055230;28;20230;-67
2023/10/13 11:07:08;;;;;;;17.77;17.15;;;28.10;99.90;;;;;;5071935;28;20214;-66
2023/10/13 11:09:45;;;;;;;18.10;17.35;;;28.10;99.70;;;;;;5064975;28;20215;-67
2023/10/13 11:12:16;;;;;;;18.90;18.20;;;28.20;99.90;;;;;;5071122;28;20572;-67
2023/10/13 11:14:46;;;;;;;17.45;16.77;;;28.30;99.90;;;;;;5071466;28;20712;-66
2023/10/13 11:17:24;;;;;;;18.73;18.05;;;28.30;99.90;;;;;;5071673;28;20211;-67
2023/10/13 11:19:51;;;;;;;18.58;17.88;;;28.40;99.20;;;;;;5076101;28;20684;-68
2023/10/13 11:22:33;;;;;;;19.45;18.73;;;28.30;98.90;;;;;;5072247;28;20257;-67
2023/10/13 11:25:09;;;;;;;18.50;17.80;;;28.40;99.10;;;;;;5065985;28;20246;-67
2023/10/13 11:27:55;;;;;;;17.48;16.77;;;28.40;99.40;;;;;;5063845;28;20268;-68
2023/10/13 11:30:25;;;;;;;18.10;17.40;;;28.60;99.90;;;;;;5068123;28;20618;-66
2023/10/13 11:33:00;;;;;;;19.70;19.00;;;28.60;99.00;;;;;;5068394;28;20211;-67
2023/10/13 11:35:29;;;;;;;18.25;17.55;;;28.60;99.10;;;;;;5071422;28;20288;-66
2023/10/13 11:38:03;;;;;;;19.27;18.58;;;28.70;99.30;;;;;;5069626;28;20236;-67
2023/10/13 11:41:06;;;;;;;17.88;17.25;;;28.70;98.20;;;;;;5066439;28;20301;-67
2023/10/13 11:43:39;;;;;;;19.00;18.30;;;28.70;97.90;;;;;;5067186;28;20681;-67
2023/10/13 11:46:14;;;;;;;18.83;18.13;;;28.70;98.00;;;;;;5070385;28;20891;-66
2023/10/13 11:48:43;;;;;;;19.65;18.95;;;28.70;98.10;;;;;;5061331;28;20222;-66
2023/10/13 11:51:17;;;;;;;18.65;17.95;;;28.80;98.00;;;;;;5071300;28;20210;-67
2023/10/13 11:53:45;;;;;;;19.23;18.52;;;28.80;97.70;;;;;;5065971;28;20249;-67
2023/10/13 11:56:12;;;;;;;19.83;19.13;;;28.80;97.30;;;;;;5071178;28;20685;-67
2023/10/13 11:58:40;;;;;;;19.30;18.60;;;28.90;97.70;;;;;;5067472;28;20219;-68
2023/10/13 12:01:20;;;;;;;18.60;17.90;;;28.90;97.40;;;;;;5055981;28;20504;-67
2023/10/13 12:06:46;;;;;;;19.23;18.52;;;29.10;97.70;;;;;;5069384;28;20215;-68
2023/10/13 12:09:32;;;;;;;20.70;19.92;;;29.20;98.00;;;;;;5060192;28;20784;-67
2023/10/13 12:12:00;;;;;;;19.65;18.85;;;29.20;97.30;;;;;;5065617;28;20276;-67
2023/10/13 12:14:29;;;;;;;19.00;18.30;;;29.20;97.20;;;;;;5069408;28;20274;-67
2023/10/13 12:17:03;;;;;;;19.58;18.88;;;29.20;97.20;;;;;;5065725;28;20643;-67
2023/10/13 12:19:31;;;;;;;18.77;18.08;;;29.30;97.70;;;;;;5060230;28;20214;-66
2023/10/13 12:22:04;;;;;;;17.23;16.60;;;29.30;97.00;;;;;;5062798;28;20206;-67
2023/10/13 12:24:39;;;;;;;19.15;18.45;;;29.30;96.70;;;;;;5072549;28;20227;-66
2023/10/13 12:27:18;;;;;;;20.48;19.67;;;29.40;96.90;;;;;;5066095;28;20658;-67
2023/10/13 12:29:46;;;;;;;17.23;16.63;;;29.50;97.00;;;;;;5068708;28;20310;-68
2023/10/13 12:32:14;;;;;;;18.73;17.77;;;29.50;96.50;;;;;;5067052;28;20211;-67
2023/10/13 12:35:00;;;;;;;16.85;16.17;;;29.60;96.10;;;;;;5074955;28;20239;-68
2023/10/13 12:37:49;;;;;;;17.58;16.88;;;29.60;95.20;;;;;;5068309;28;20221;-67
2023/10/13 12:51:23;;;;;;;20.42;19.63;;;29.20;95.70;;;;;;5072787;28;20206;-66
2023/10/13 12:53:51;;;;;;;19.98;19.17;;;29.00;96.10;;;;;;5068670;28;20756;-67
2023/10/13 12:56:25;;;;;;;21.98;21.17;;;28.80;95.50;;;;;;5072257;28;20211;-68
2023/10/13 12:58:52;;;;;;;22.05;21.25;;;28.60;95.80;;;;;;5066029;28;20203;-67
2023/10/13 13:01:20;;;;;;;22.88;22.08;;;28.50;95.80;;;;;;5066468;28;20238;-66
2023/10/13 13:03:48;;;;;;;22.83;22.02;;;28.50;96.20;;;;;;5074817;28;20775;-67
2023/10/13 13:06:24;;;;;;;22.42;21.63;;;28.50;96.00;;;;;;5074524;28;20685;-67
2023/10/13 13:08:51;;;;;;;23.35;22.45;;;28.60;96.20;;;;;;5074925;28;20670;-66
2023/10/13 13:11:18;;;;;;;21.13;20.35;;;28.90;96.20;;;;;;5072250;28;20215;-67
2023/10/13 13:13:46;;;;;;;21.35;20.60;;;29.00;95.50;;;;;;5069072;28;20319;-67
2023/10/13 13:16:12;;;;;;;19.33;18.63;;;29.20;95.70;;;;;;5074526;28;20662;-67
2023/10/13 13:18:39;;;;;;;22.60;21.80;;;29.30;95.10;;;;;;5072821;28;20222;-66
2023/10/13 13:21:06;;;;;;;22.20;21.40;;;29.40;95.80;;;;;;5074944;28;20208;-67
2023/10/13 13:23:34;;;;;;;18.98;18.27;;;29.60;95.90;;;;;;5078168;28;20230;-67
2023/10/13 13:26:01;;;;;;;19.63;18.73;;;29.70;95.20;;;;;;5074410;28;20215;-67
2023/10/13 13:28:29;;;;;;;18.10;17.40;;;29.70;94.90;;;;;;5072893;28;20235;-67
2023/10/13 13:30:56;;;;;;;20.17;19.48;;;29.70;93.70;;;;;;5066048;28;20227;-67
2023/10/13 13:33:25;;;;;;;17.77;17.08;;;29.70;92.60;;;;;;5078553;28;20259;-67
2023/10/13 13:35:54;;;;;;;18.40;17.67;;;29.70;92.50;;;;;;5071428;28;20222;-66
2023/10/13 13:38:27;;;;;;;18.90;18.10;;;29.70;92.10;;;;;;5071966;28;20208;-65
2023/10/13 13:40:55;;;;;;;19.08;18.38;;;29.80;92.50;;;;;;5065847;28;20235;-67
2023/10/13 13:46:12;;;;;;;19.58;18.80;;;29.80;92.00;;;;;;5062947;28;20209;-67
2023/10/13 13:48:40;;;;;;;18.85;18.15;;;29.80;92.50;;;;;;5073532;28;20207;-68
2023/10/13 13:51:14;;;;;;;19.48;18.77;;;29.90;92.20;;;;;;5071705;28;20211;-66
2023/10/13 13:53:44;;;;;;;19.80;19.10;;;29.80;91.90;;;;;;5066457;28;20236;-67
2023/10/13 13:56:15;;;;;;;20.35;19.65;;;29.70;92.30;;;;;;5078024;28;20214;-67
2023/10/13 13:58:42;;;;;;;21.60;20.80;;;29.60;92.20;;;;;;5084476;28;20283;-67
2023/10/13 14:01:15;;;;;;;21.42;20.65;;;29.70;92.90;;;;;;5081154;28;20199;-68
2023/10/13 14:03:46;;;;;;;21.75;20.95;;;29.70;93.60;;;;;;5076935;28;20234;-67
2023/10/13 14:06:17;;;;;;;19.52;18.75;;;29.80;93.50;;;;;;5087294;28;20215;-67
2023/10/13 14:08:48;;;;;;;20.27;19.50;;;29.70;92.80;;;;;;5083706;28;20222;-66
2023/10/13 14:14:11;;;;;;;19.58;18.77;;;29.70;93.00;;;;;;5076163;28;20233;-66
2023/10/13 14:16:44;;;;;;;19.95;19.23;;;29.60;92.50;;;;;;5070693;28;20203;-67
2023/10/13 14:19:11;;;;;;;21.65;20.85;;;29.60;92.30;;;;;;5074038;28;20221;-67
2023/10/13 14:21:38;;;;;;;20.85;20.05;;;29.70;92.10;;;;;;5071201;28;20207;-66
2023/10/13 14:24:13;;;;;;;22.70;21.80;;;29.60;91.40;;;;;;5054366;28;20237;-66
2023/10/13 14:26:43;;;;;;;23.73;22.85;;;29.60;91.90;;;;;;5059380;28;20207;-66
2023/10/13 14:29:14;;;;;;;26.73;25.70;;;29.60;92.20;;;;;;5062152;28;20254;-66
2023/10/13 14:31:41;;;;;;;21.00;20.20;;;29.60;93.00;;;;;;5069153;28;20214;-66
2023/10/13 14:34:08;;;;;;;21.08;20.27;;;29.60;92.20;;;;;;5068807;28;20231;-67
2023/10/13 14:36:35;;;;;;;20.80;20.08;;;29.60;91.70;;;;;;5066092;28;20222;-66
2023/10/13 14:39:02;;;;;;;22.42;21.63;;;29.50;91.40;;;;;;5072674;28;20296;-67
2023/10/13 14:41:30;;;;;;;22.25;21.45;;;29.40;91.30;;;;;;5070644;28;20239;-66
2023/10/13 14:44:04;;;;;;;23.90;23.00;;;29.40;91.10;;;;;;5069842;28;20314;-66
2023/10/13 14:46:35;;;;;;;22.50;21.70;;;29.40;91.20;;;;;;5058877;28;20219;-67
2023/10/13 14:49:02;;;;;;;23.73;22.85;;;29.40;91.10;;;;;;5075733;28;20520;-66
2023/10/13 14:51:29;;;;;;;23.92;23.02;;;29.40;91.10;;;;;;5062695;28;20235;-66
2023/10/13 14:53:56;;;;;;;25.08;24.10;;;29.40;90.80;;;;;;5067343;28;20239;-65